sensor_id;sensor_type;location;lat;lon;timestamp;P1;durP1;ratioP1;P2;durP2;ratioP2
71973;SDS011;59840;52.122;5.404;2023-12-14T00:01:41;7.57;;;4.03;;
71973;SDS011;59840;52.122;5.404;2023-12-14T00:04:08;8.95;;;4.90;;
71973;SDS011;59840;52.122;5.404;2023-12-14T00:06:34;9.13;;;4.43;;
71973;SDS011;59840;52.122;5.404;2023-12-14T00:09:01;9.60;;;4.80;;
71973;SDS011;59840;52.122;5.404;2023-12-14T00:11:28;11.27;;;4.95;;
71973;SDS011;59840;52.122;5.404;2023-12-14T00:13:54;9.05;;;5.22;;
71973;SDS011;59840;52.122;5.404;2023-12-14T00:16:21;8.80;;;5.03;;
71973;SDS011;59840;52.122;5.404;2023-12-14T00:18:47;8.23;;;4.57;;
71973;SDS011;59840;52.122;5.404;2023-12-14T00:21:14;9.13;;;4.60;;
71973;SDS011;59840;52.122;5.404;2023-12-14T00:23:41;8.75;;;5.45;;
71973;SDS011;59840;52.122;5.404;2023-12-14T00:26:07;6.95;;;4.55;;
71973;SDS011;59840;52.122;5.404;2023-12-14T00:28:34;9.80;;;4.78;;
71973;SDS011;59840;52.122;5.404;2023-12-14T00:31:01;6.57;;;4.55;;
71973;SDS011;59840;52.122;5.404;2023-12-14T00:33:28;7.73;;;4.77;;
71973;SDS011;59840;52.122;5.404;2023-12-14T00:35:54;8.88;;;5.13;;
71973;SDS011;59840;52.122;5.404;2023-12-14T00:38:21;8.40;;;5.07;;
71973;SDS011;59840;52.122;5.404;2023-12-14T00:40:47;8.73;;;4.78;;
71973;SDS011;59840;52.122;5.404;2023-12-14T00:43:14;8.80;;;4.95;;
71973;SDS011;59840;52.122;5.404;2023-12-14T00:45:40;7.53;;;4.60;;
71973;SDS011;59840;52.122;5.404;2023-12-14T00:48:10;8.20;;;3.85;;
71973;SDS011;59840;52.122;5.404;2023-12-14T00:50:37;8.80;;;5.10;;
71973;SDS011;59840;52.122;5.404;2023-12-14T00:53:03;8.45;;;4.50;;
71973;SDS011;59840;52.122;5.404;2023-12-14T00:55:30;8.23;;;4.60;;
71973;SDS011;59840;52.122;5.404;2023-12-14T00:57:56;7.40;;;4.47;;
71973;SDS011;59840;52.122;5.404;2023-12-14T01:00:23;8.98;;;5.45;;
71973;SDS011;59840;52.122;5.404;2023-12-14T01:02:49;8.55;;;4.50;;
71973;SDS011;59840;52.122;5.404;2023-12-14T01:05:16;9.48;;;5.15;;
71973;SDS011;59840;52.122;5.404;2023-12-14T01:07:43;9.43;;;4.95;;
71973;SDS011;59840;52.122;5.404;2023-12-14T01:10:09;6.00;;;3.80;;
71973;SDS011;59840;52.122;5.404;2023-12-14T01:12:36;7.00;;;4.25;;
71973;SDS011;59840;52.122;5.404;2023-12-14T01:15:03;7.18;;;4.13;;
71973;SDS011;59840;52.122;5.404;2023-12-14T01:17:30;8.38;;;4.47;;
71973;SDS011;59840;52.122;5.404;2023-12-14T01:19:57;5.70;;;4.03;;
71973;SDS011;59840;52.122;5.404;2023-12-14T01:22:24;7.50;;;4.47;;
71973;SDS011;59840;52.122;5.404;2023-12-14T01:24:50;7.95;;;4.28;;
71973;SDS011;59840;52.122;5.404;2023-12-14T01:27:17;6.72;;;4.07;;
71973;SDS011;59840;52.122;5.404;2023-12-14T01:29:43;8.00;;;4.50;;
71973;SDS011;59840;52.122;5.404;2023-12-14T01:32:10;7.93;;;4.38;;
71973;SDS011;59840;52.122;5.404;2023-12-14T01:34:37;8.77;;;4.40;;
71973;SDS011;59840;52.122;5.404;2023-12-14T01:37:03;7.15;;;4.60;;
71973;SDS011;59840;52.122;5.404;2023-12-14T01:39:30;5.68;;;4.18;;
71973;SDS011;59840;52.122;5.404;2023-12-14T01:41:56;8.30;;;4.63;;
71973;SDS011;59840;52.122;5.404;2023-12-14T01:44:23;5.65;;;3.42;;
71973;SDS011;59840;52.122;5.404;2023-12-14T01:46:50;7.53;;;4.50;;
71973;SDS011;59840;52.122;5.404;2023-12-14T01:49:17;7.32;;;4.20;;
71973;SDS011;59840;52.122;5.404;2023-12-14T01:51:43;8.95;;;4.55;;
71973;SDS011;59840;52.122;5.404;2023-12-14T01:54:10;6.95;;;4.32;;
71973;SDS011;59840;52.122;5.404;2023-12-14T01:56:36;6.05;;;4.50;;
71973;SDS011;59840;52.122;5.404;2023-12-14T01:59:03;7.40;;;4.60;;
71973;SDS011;59840;52.122;5.404;2023-12-14T02:01:38;7.00;;;4.70;;
71973;SDS011;59840;52.122;5.404;2023-12-14T02:04:08;8.25;;;4.85;;
71973;SDS011;59840;52.122;5.404;2023-12-14T02:06:36;7.97;;;4.63;;
71973;SDS011;59840;52.122;5.404;2023-12-14T02:09:02;8.85;;;4.75;;
71973;SDS011;59840;52.122;5.404;2023-12-14T02:11:29;6.07;;;4.20;;
71973;SDS011;59840;52.122;5.404;2023-12-14T02:13:56;8.60;;;4.85;;
71973;SDS011;59840;52.122;5.404;2023-12-14T02:16:23;6.53;;;4.15;;
71973;SDS011;59840;52.122;5.404;2023-12-14T02:18:50;6.80;;;4.65;;
71973;SDS011;59840;52.122;5.404;2023-12-14T02:21:16;6.30;;;4.10;;
71973;SDS011;59840;52.122;5.404;2023-12-14T02:23:45;6.87;;;4.20;;
71973;SDS011;59840;52.122;5.404;2023-12-14T02:26:12;7.22;;;4.40;;
71973;SDS011;59840;52.122;5.404;2023-12-14T02:28:39;6.95;;;4.60;;
71973;SDS011;59840;52.122;5.404;2023-12-14T02:31:06;6.82;;;4.32;;
71973;SDS011;59840;52.122;5.404;2023-12-14T02:33:33;6.60;;;4.20;;
71973;SDS011;59840;52.122;5.404;2023-12-14T02:36:00;6.60;;;4.33;;
71973;SDS011;59840;52.122;5.404;2023-12-14T02:38:26;6.97;;;4.20;;
71973;SDS011;59840;52.122;5.404;2023-12-14T02:40:53;6.78;;;3.97;;
71973;SDS011;59840;52.122;5.404;2023-12-14T02:43:20;6.63;;;4.50;;
71973;SDS011;59840;52.122;5.404;2023-12-14T02:45:46;6.55;;;4.10;;
71973;SDS011;59840;52.122;5.404;2023-12-14T02:48:13;6.50;;;4.17;;
71973;SDS011;59840;52.122;5.404;2023-12-14T02:50:39;7.32;;;4.72;;
71973;SDS011;59840;52.122;5.404;2023-12-14T02:53:06;8.90;;;4.72;;
71973;SDS011;59840;52.122;5.404;2023-12-14T02:55:33;6.93;;;4.22;;
71973;SDS011;59840;52.122;5.404;2023-12-14T02:57:59;7.28;;;4.18;;
71973;SDS011;59840;52.122;5.404;2023-12-14T03:00:26;5.90;;;4.30;;
71973;SDS011;59840;52.122;5.404;2023-12-14T03:02:52;8.70;;;5.25;;
71973;SDS011;59840;52.122;5.404;2023-12-14T03:05:19;6.47;;;4.78;;
71973;SDS011;59840;52.122;5.404;2023-12-14T03:07:46;6.88;;;4.70;;
71973;SDS011;59840;52.122;5.404;2023-12-14T03:10:12;7.68;;;5.20;;
71973;SDS011;59840;52.122;5.404;2023-12-14T03:12:39;8.47;;;4.43;;
71973;SDS011;59840;52.122;5.404;2023-12-14T03:15:06;7.47;;;4.85;;
71973;SDS011;59840;52.122;5.404;2023-12-14T03:17:33;7.75;;;4.35;;
71973;SDS011;59840;52.122;5.404;2023-12-14T03:19:59;6.90;;;4.25;;
71973;SDS011;59840;52.122;5.404;2023-12-14T03:22:26;8.07;;;4.88;;
71973;SDS011;59840;52.122;5.404;2023-12-14T03:24:52;7.30;;;4.13;;
71973;SDS011;59840;52.122;5.404;2023-12-14T03:27:19;6.97;;;4.32;;
71973;SDS011;59840;52.122;5.404;2023-12-14T03:29:46;7.50;;;4.55;;
71973;SDS011;59840;52.122;5.404;2023-12-14T03:32:12;7.40;;;5.22;;
71973;SDS011;59840;52.122;5.404;2023-12-14T03:34:39;7.05;;;4.57;;
71973;SDS011;59840;52.122;5.404;2023-12-14T03:37:07;11.03;;;5.30;;
71973;SDS011;59840;52.122;5.404;2023-12-14T03:39:33;7.72;;;4.65;;
71973;SDS011;59840;52.122;5.404;2023-12-14T03:42:00;6.40;;;4.40;;
71973;SDS011;59840;52.122;5.404;2023-12-14T03:44:26;7.80;;;4.80;;
71973;SDS011;59840;52.122;5.404;2023-12-14T03:46:53;12.63;;;5.25;;
71973;SDS011;59840;52.122;5.404;2023-12-14T03:49:20;11.47;;;5.20;;
71973;SDS011;59840;52.122;5.404;2023-12-14T03:51:47;8.73;;;4.97;;
71973;SDS011;59840;52.122;5.404;2023-12-14T03:54:13;12.68;;;5.07;;
71973;SDS011;59840;52.122;5.404;2023-12-14T03:56:40;10.55;;;5.88;;
71973;SDS011;59840;52.122;5.404;2023-12-14T03:59:07;7.55;;;5.05;;
71973;SDS011;59840;52.122;5.404;2023-12-14T04:01:33;8.30;;;5.90;;
71973;SDS011;59840;52.122;5.404;2023-12-14T04:04:00;11.30;;;5.35;;
71973;SDS011;59840;52.122;5.404;2023-12-14T04:06:26;10.75;;;5.47;;
71973;SDS011;59840;52.122;5.404;2023-12-14T04:08:53;10.77;;;5.40;;
71973;SDS011;59840;52.122;5.404;2023-12-14T04:11:19;9.13;;;5.40;;
71973;SDS011;59840;52.122;5.404;2023-12-14T04:13:46;9.40;;;5.00;;
71973;SDS011;59840;52.122;5.404;2023-12-14T04:16:19;15.18;;;5.35;;
71973;SDS011;59840;52.122;5.404;2023-12-14T04:18:50;9.43;;;5.20;;
71973;SDS011;59840;52.122;5.404;2023-12-14T04:21:16;9.02;;;4.55;;
71973;SDS011;59840;52.122;5.404;2023-12-14T04:23:43;8.02;;;4.95;;
71973;SDS011;59840;52.122;5.404;2023-12-14T04:26:12;8.03;;;4.73;;
71973;SDS011;59840;52.122;5.404;2023-12-14T04:28:40;12.88;;;5.00;;
71973;SDS011;59840;52.122;5.404;2023-12-14T04:31:07;9.07;;;4.90;;
71973;SDS011;59840;52.122;5.404;2023-12-14T04:33:33;8.18;;;4.15;;
71973;SDS011;59840;52.122;5.404;2023-12-14T04:36:00;9.25;;;4.75;;
71973;SDS011;59840;52.122;5.404;2023-12-14T04:38:27;7.47;;;4.33;;
71973;SDS011;59840;52.122;5.404;2023-12-14T04:40:53;7.65;;;4.20;;
71973;SDS011;59840;52.122;5.404;2023-12-14T04:43:20;6.57;;;4.38;;
71973;SDS011;59840;52.122;5.404;2023-12-14T04:45:47;7.32;;;3.95;;
71973;SDS011;59840;52.122;5.404;2023-12-14T04:48:13;6.63;;;3.92;;
71973;SDS011;59840;52.122;5.404;2023-12-14T04:50:40;9.70;;;3.67;;
71973;SDS011;59840;52.122;5.404;2023-12-14T04:53:06;5.45;;;3.42;;
71973;SDS011;59840;52.122;5.404;2023-12-14T04:55:34;7.15;;;4.32;;
71973;SDS011;59840;52.122;5.404;2023-12-14T04:58:01;5.80;;;3.55;;
71973;SDS011;59840;52.122;5.404;2023-12-14T05:00:27;8.48;;;4.63;;
71973;SDS011;59840;52.122;5.404;2023-12-14T05:02:54;8.17;;;3.77;;
71973;SDS011;59840;52.122;5.404;2023-12-14T05:05:21;5.63;;;3.58;;
71973;SDS011;59840;52.122;5.404;2023-12-14T05:07:47;7.05;;;3.80;;
71973;SDS011;59840;52.122;5.404;2023-12-14T05:10:14;8.35;;;4.00;;
71973;SDS011;59840;52.122;5.404;2023-12-14T05:12:40;6.05;;;3.10;;
71973;SDS011;59840;52.122;5.404;2023-12-14T05:15:07;6.10;;;3.70;;
71973;SDS011;59840;52.122;5.404;2023-12-14T05:17:35;7.70;;;3.75;;
71973;SDS011;59840;52.122;5.404;2023-12-14T05:20:04;6.50;;;3.80;;
71973;SDS011;59840;52.122;5.404;2023-12-14T05:22:31;6.03;;;3.55;;
71973;SDS011;59840;52.122;5.404;2023-12-14T05:24:58;7.53;;;3.90;;
71973;SDS011;59840;52.122;5.404;2023-12-14T05:27:25;6.43;;;3.87;;
71973;SDS011;59840;52.122;5.404;2023-12-14T05:29:52;6.85;;;3.83;;
71973;SDS011;59840;52.122;5.404;2023-12-14T05:32:19;9.00;;;3.92;;
71973;SDS011;59840;52.122;5.404;2023-12-14T05:34:45;7.68;;;3.42;;
71973;SDS011;59840;52.122;5.404;2023-12-14T05:37:12;7.18;;;3.67;;
71973;SDS011;59840;52.122;5.404;2023-12-14T05:39:40;5.93;;;3.37;;
71973;SDS011;59840;52.122;5.404;2023-12-14T05:42:08;8.02;;;3.97;;
71973;SDS011;59840;52.122;5.404;2023-12-14T05:44:35;7.25;;;4.13;;
71973;SDS011;59840;52.122;5.404;2023-12-14T05:47:01;7.72;;;4.05;;
71973;SDS011;59840;52.122;5.404;2023-12-14T05:49:28;6.82;;;4.07;;
71973;SDS011;59840;52.122;5.404;2023-12-14T05:51:54;8.07;;;3.70;;
71973;SDS011;59840;52.122;5.404;2023-12-14T05:54:21;8.45;;;3.47;;
71973;SDS011;59840;52.122;5.404;2023-12-14T05:56:48;7.95;;;3.55;;
71973;SDS011;59840;52.122;5.404;2023-12-14T05:59:14;8.10;;;3.20;;
71973;SDS011;59840;52.122;5.404;2023-12-14T06:01:41;6.93;;;3.10;;
71973;SDS011;59840;52.122;5.404;2023-12-14T06:04:09;6.10;;;3.30;;
71973;SDS011;59840;52.122;5.404;2023-12-14T06:06:37;9.10;;;3.53;;
71973;SDS011;59840;52.122;5.404;2023-12-14T06:09:05;5.40;;;3.38;;
71973;SDS011;59840;52.122;5.404;2023-12-14T06:11:33;5.50;;;3.10;;
71973;SDS011;59840;52.122;5.404;2023-12-14T06:14:00;4.68;;;2.50;;
71973;SDS011;59840;52.122;5.404;2023-12-14T06:16:27;4.97;;;2.93;;
71973;SDS011;59840;52.122;5.404;2023-12-14T06:18:53;5.00;;;3.67;;
71973;SDS011;59840;52.122;5.404;2023-12-14T06:21:20;4.60;;;2.78;;
71973;SDS011;59840;52.122;5.404;2023-12-14T06:23:47;4.95;;;2.88;;
71973;SDS011;59840;52.122;5.404;2023-12-14T06:26:17;6.00;;;3.13;;
71973;SDS011;59840;52.122;5.404;2023-12-14T06:28:43;5.60;;;3.30;;
71973;SDS011;59840;52.122;5.404;2023-12-14T06:31:13;4.22;;;2.95;;
71973;SDS011;59840;52.122;5.404;2023-12-14T06:33:41;4.90;;;2.95;;
71973;SDS011;59840;52.122;5.404;2023-12-14T06:36:08;5.07;;;2.90;;
71973;SDS011;59840;52.122;5.404;2023-12-14T06:38:37;5.10;;;3.25;;
71973;SDS011;59840;52.122;5.404;2023-12-14T06:41:05;5.97;;;3.07;;
71973;SDS011;59840;52.122;5.404;2023-12-14T06:43:31;6.03;;;2.67;;
71973;SDS011;59840;52.122;5.404;2023-12-14T06:45:58;9.68;;;3.65;;
71973;SDS011;59840;52.122;5.404;2023-12-14T06:48:25;5.35;;;3.33;;
71973;SDS011;59840;52.122;5.404;2023-12-14T06:50:52;6.72;;;3.50;;
71973;SDS011;59840;52.122;5.404;2023-12-14T06:53:21;5.87;;;3.17;;
71973;SDS011;59840;52.122;5.404;2023-12-14T06:55:47;5.20;;;3.13;;
71973;SDS011;59840;52.122;5.404;2023-12-14T06:58:14;5.13;;;3.40;;
71973;SDS011;59840;52.122;5.404;2023-12-14T07:00:41;6.40;;;2.88;;
71973;SDS011;59840;52.122;5.404;2023-12-14T07:03:08;4.22;;;2.90;;
71973;SDS011;59840;52.122;5.404;2023-12-14T07:05:35;4.70;;;2.93;;
71973;SDS011;59840;52.122;5.404;2023-12-14T07:08:02;7.40;;;3.50;;
71973;SDS011;59840;52.122;5.404;2023-12-14T07:10:29;4.40;;;2.70;;
71973;SDS011;59840;52.122;5.404;2023-12-14T07:12:56;4.80;;;2.85;;
71973;SDS011;59840;52.122;5.404;2023-12-14T07:15:23;6.05;;;3.08;;
71973;SDS011;59840;52.122;5.404;2023-12-14T07:17:50;4.83;;;3.07;;
71973;SDS011;59840;52.122;5.404;2023-12-14T07:20:16;5.05;;;3.38;;
71973;SDS011;59840;52.122;5.404;2023-12-14T07:22:43;4.93;;;3.03;;
71973;SDS011;59840;52.122;5.404;2023-12-14T07:25:10;4.47;;;2.80;;
71973;SDS011;59840;52.122;5.404;2023-12-14T07:27:36;7.38;;;3.50;;
71973;SDS011;59840;52.122;5.404;2023-12-14T07:30:03;5.00;;;3.30;;
71973;SDS011;59840;52.122;5.404;2023-12-14T07:32:30;7.32;;;3.25;;
71973;SDS011;59840;52.122;5.404;2023-12-14T07:34:56;4.88;;;2.70;;
71973;SDS011;59840;52.122;5.404;2023-12-14T07:37:23;4.88;;;3.28;;
71973;SDS011;59840;52.122;5.404;2023-12-14T07:39:50;5.20;;;2.95;;
71973;SDS011;59840;52.122;5.404;2023-12-14T07:42:16;5.13;;;3.00;;
71973;SDS011;59840;52.122;5.404;2023-12-14T07:44:46;4.78;;;3.13;;
71973;SDS011;59840;52.122;5.404;2023-12-14T07:47:13;5.93;;;3.45;;
71973;SDS011;59840;52.122;5.404;2023-12-14T07:49:40;6.65;;;3.30;;
71973;SDS011;59840;52.122;5.404;2023-12-14T07:52:06;5.68;;;2.90;;
71973;SDS011;59840;52.122;5.404;2023-12-14T07:54:33;4.80;;;3.10;;
71973;SDS011;59840;52.122;5.404;2023-12-14T07:57:00;4.30;;;3.25;;
71973;SDS011;59840;52.122;5.404;2023-12-14T07:59:27;5.68;;;3.17;;
71973;SDS011;59840;52.122;5.404;2023-12-14T08:01:56;4.63;;;3.22;;
71973;SDS011;59840;52.122;5.404;2023-12-14T08:04:23;4.57;;;3.00;;
71973;SDS011;59840;52.122;5.404;2023-12-14T08:06:49;5.80;;;3.03;;
71973;SDS011;59840;52.122;5.404;2023-12-14T08:09:16;5.28;;;3.50;;
71973;SDS011;59840;52.122;5.404;2023-12-14T08:11:43;6.60;;;3.38;;
71973;SDS011;59840;52.122;5.404;2023-12-14T08:14:09;4.75;;;3.20;;
71973;SDS011;59840;52.122;5.404;2023-12-14T08:16:36;5.03;;;3.47;;
71973;SDS011;59840;52.122;5.404;2023-12-14T08:19:03;4.77;;;3.33;;
71973;SDS011;59840;52.122;5.404;2023-12-14T08:21:29;5.00;;;2.88;;
71973;SDS011;59840;52.122;5.404;2023-12-14T08:23:57;5.35;;;2.85;;
71973;SDS011;59840;52.122;5.404;2023-12-14T08:26:24;4.90;;;2.90;;
71973;SDS011;59840;52.122;5.404;2023-12-14T08:28:50;5.25;;;3.15;;
71973;SDS011;59840;52.122;5.404;2023-12-14T08:31:17;4.90;;;2.90;;
71973;SDS011;59840;52.122;5.404;2023-12-14T08:33:43;6.22;;;3.42;;
71973;SDS011;59840;52.122;5.404;2023-12-14T08:36:15;5.18;;;3.75;;
71973;SDS011;59840;52.122;5.404;2023-12-14T08:38:43;6.20;;;3.83;;
71973;SDS011;59840;52.122;5.404;2023-12-14T08:41:13;6.32;;;3.90;;
71973;SDS011;59840;52.122;5.404;2023-12-14T08:43:41;5.17;;;3.27;;
71973;SDS011;59840;52.122;5.404;2023-12-14T08:46:09;5.55;;;3.17;;
71973;SDS011;59840;52.122;5.404;2023-12-14T08:48:36;4.57;;;3.20;;
71973;SDS011;59840;52.122;5.404;2023-12-14T08:51:04;6.38;;;3.50;;
71973;SDS011;59840;52.122;5.404;2023-12-14T08:53:31;7.25;;;4.28;;
71973;SDS011;59840;52.122;5.404;2023-12-14T08:55:58;5.50;;;3.33;;
71973;SDS011;59840;52.122;5.404;2023-12-14T08:58:25;7.35;;;3.58;;
71973;SDS011;59840;52.122;5.404;2023-12-14T09:00:51;5.07;;;3.55;;
71973;SDS011;59840;52.122;5.404;2023-12-14T09:03:19;5.43;;;3.60;;
71973;SDS011;59840;52.122;5.404;2023-12-14T09:05:46;5.55;;;3.63;;
71973;SDS011;59840;52.122;5.404;2023-12-14T09:08:13;8.37;;;3.90;;
71973;SDS011;59840;52.122;5.404;2023-12-14T09:10:39;5.22;;;3.45;;
71973;SDS011;59840;52.122;5.404;2023-12-14T09:13:06;8.43;;;4.20;;
71973;SDS011;59840;52.122;5.404;2023-12-14T09:15:33;6.18;;;3.42;;
71973;SDS011;59840;52.122;5.404;2023-12-14T09:18:00;6.55;;;3.63;;
71973;SDS011;59840;52.122;5.404;2023-12-14T09:20:27;7.00;;;3.60;;
71973;SDS011;59840;52.122;5.404;2023-12-14T09:22:53;7.47;;;3.10;;
71973;SDS011;59840;52.122;5.404;2023-12-14T09:25:20;5.22;;;3.63;;
71973;SDS011;59840;52.122;5.404;2023-12-14T09:27:46;5.60;;;3.15;;
71973;SDS011;59840;52.122;5.404;2023-12-14T09:30:13;5.28;;;3.33;;
71973;SDS011;59840;52.122;5.404;2023-12-14T09:32:40;5.50;;;3.27;;
71973;SDS011;59840;52.122;5.404;2023-12-14T09:35:07;5.00;;;3.38;;
71973;SDS011;59840;52.122;5.404;2023-12-14T09:37:34;6.03;;;3.53;;
71973;SDS011;59840;52.122;5.404;2023-12-14T09:40:02;5.28;;;3.00;;
71973;SDS011;59840;52.122;5.404;2023-12-14T09:42:29;6.47;;;3.90;;
71973;SDS011;59840;52.122;5.404;2023-12-14T09:45:03;7.60;;;3.97;;
71973;SDS011;59840;52.122;5.404;2023-12-14T09:47:30;8.80;;;4.25;;
71973;SDS011;59840;52.122;5.404;2023-12-14T09:49:58;6.80;;;3.45;;
71973;SDS011;59840;52.122;5.404;2023-12-14T09:52:26;6.32;;;3.28;;
71973;SDS011;59840;52.122;5.404;2023-12-14T09:54:53;6.10;;;3.35;;
71973;SDS011;59840;52.122;5.404;2023-12-14T09:57:21;7.87;;;3.77;;
71973;SDS011;59840;52.122;5.404;2023-12-14T09:59:55;5.72;;;3.50;;
71973;SDS011;59840;52.122;5.404;2023-12-14T10:02:24;4.75;;;3.22;;
71973;SDS011;59840;52.122;5.404;2023-12-14T10:04:53;7.18;;;3.75;;
71973;SDS011;59840;52.122;5.404;2023-12-14T10:07:23;3.78;;;2.65;;
71973;SDS011;59840;52.122;5.404;2023-12-14T10:09:50;4.33;;;2.70;;
71973;SDS011;59840;52.122;5.404;2023-12-14T10:12:17;4.10;;;2.70;;
71973;SDS011;59840;52.122;5.404;2023-12-14T10:14:44;4.18;;;2.38;;
71973;SDS011;59840;52.122;5.404;2023-12-14T10:17:16;4.68;;;2.72;;
71973;SDS011;59840;52.122;5.404;2023-12-14T10:19:44;4.43;;;2.58;;
71973;SDS011;59840;52.122;5.404;2023-12-14T10:22:16;5.40;;;2.50;;
71973;SDS011;59840;52.122;5.404;2023-12-14T10:24:46;4.35;;;2.97;;
71973;SDS011;59840;52.122;5.404;2023-12-14T10:27:14;5.05;;;3.28;;
71973;SDS011;59840;52.122;5.404;2023-12-14T10:29:42;3.42;;;2.55;;
71973;SDS011;59840;52.122;5.404;2023-12-14T10:32:11;5.40;;;2.85;;
71973;SDS011;59840;52.122;5.404;2023-12-14T10:34:38;3.97;;;2.60;;
71973;SDS011;59840;52.122;5.404;2023-12-14T10:37:08;4.82;;;2.63;;
71973;SDS011;59840;52.122;5.404;2023-12-14T10:39:36;4.30;;;2.90;;
71973;SDS011;59840;52.122;5.404;2023-12-14T10:42:05;5.63;;;3.42;;
71973;SDS011;59840;52.122;5.404;2023-12-14T10:44:45;5.35;;;2.92;;
71973;SDS011;59840;52.122;5.404;2023-12-14T10:47:34;5.10;;;2.90;;
71973;SDS011;59840;52.122;5.404;2023-12-14T10:50:01;6.07;;;3.63;;
71973;SDS011;59840;52.122;5.404;2023-12-14T10:52:28;8.98;;;3.47;;
71973;SDS011;59840;52.122;5.404;2023-12-14T10:54:58;5.15;;;2.90;;
71973;SDS011;59840;52.122;5.404;2023-12-14T10:57:33;5.03;;;2.90;;
71973;SDS011;59840;52.122;5.404;2023-12-14T11:00:00;4.17;;;3.20;;
71973;SDS011;59840;52.122;5.404;2023-12-14T11:02:29;6.18;;;3.70;;
71973;SDS011;59840;52.122;5.404;2023-12-14T11:05:03;4.88;;;3.35;;
71973;SDS011;59840;52.122;5.404;2023-12-14T11:07:45;5.95;;;3.17;;
71973;SDS011;59840;52.122;5.404;2023-12-14T11:10:20;5.35;;;3.25;;
71973;SDS011;59840;52.122;5.404;2023-12-14T11:12:50;5.43;;;3.60;;
71973;SDS011;59840;52.122;5.404;2023-12-14T11:15:18;4.75;;;3.30;;
71973;SDS011;59840;52.122;5.404;2023-12-14T11:23:33;8.68;;;3.10;;
71973;SDS011;59840;52.122;5.404;2023-12-14T11:26:04;5.33;;;2.87;;
71973;SDS011;59840;52.122;5.404;2023-12-14T11:28:38;6.35;;;3.50;;
71973;SDS011;59840;52.122;5.404;2023-12-14T11:31:12;4.97;;;2.95;;
71973;SDS011;59840;52.122;5.404;2023-12-14T11:33:39;3.75;;;2.60;;
71973;SDS011;59840;52.122;5.404;2023-12-14T11:36:12;4.07;;;3.08;;
71973;SDS011;59840;52.122;5.404;2023-12-14T11:38:40;3.90;;;2.97;;
71973;SDS011;59840;52.122;5.404;2023-12-14T11:41:07;5.13;;;3.38;;
71973;SDS011;59840;52.122;5.404;2023-12-14T11:43:40;5.70;;;3.28;;
71973;SDS011;59840;52.122;5.404;2023-12-14T11:46:08;4.90;;;3.35;;
71973;SDS011;59840;52.122;5.404;2023-12-14T11:48:35;4.95;;;3.08;;
71973;SDS011;59840;52.122;5.404;2023-12-14T11:51:02;6.60;;;3.00;;
71973;SDS011;59840;52.122;5.404;2023-12-14T11:53:29;4.45;;;3.35;;
71973;SDS011;59840;52.122;5.404;2023-12-14T11:55:56;5.88;;;2.90;;
71973;SDS011;59840;52.122;5.404;2023-12-14T11:58:23;7.47;;;3.28;;
71973;SDS011;59840;52.122;5.404;2023-12-14T12:00:50;6.57;;;3.50;;
71973;SDS011;59840;52.122;5.404;2023-12-14T12:03:18;4.60;;;3.10;;
71973;SDS011;59840;52.122;5.404;2023-12-14T12:05:48;5.15;;;3.42;;
71973;SDS011;59840;52.122;5.404;2023-12-14T12:08:16;6.25;;;3.55;;
71973;SDS011;59840;52.122;5.404;2023-12-14T12:10:45;4.93;;;3.10;;
71973;SDS011;59840;52.122;5.404;2023-12-14T12:13:17;4.30;;;3.33;;
71973;SDS011;59840;52.122;5.404;2023-12-14T12:15:46;5.33;;;2.93;;
71973;SDS011;59840;52.122;5.404;2023-12-14T12:18:15;4.05;;;3.10;;
71973;SDS011;59840;52.122;5.404;2023-12-14T12:20:45;6.03;;;3.30;;
71973;SDS011;59840;52.122;5.404;2023-12-14T12:23:13;7.93;;;3.13;;
71973;SDS011;59840;52.122;5.404;2023-12-14T12:25:39;5.45;;;3.22;;
71973;SDS011;59840;52.122;5.404;2023-12-14T12:28:06;3.93;;;2.90;;
71973;SDS011;59840;52.122;5.404;2023-12-14T12:30:33;5.20;;;2.90;;
71973;SDS011;59840;52.122;5.404;2023-12-14T12:33:04;4.65;;;2.85;;
71973;SDS011;59840;52.122;5.404;2023-12-14T12:35:32;5.55;;;2.65;;
71973;SDS011;59840;52.122;5.404;2023-12-14T12:37:59;4.95;;;3.20;;
71973;SDS011;59840;52.122;5.404;2023-12-14T12:40:26;6.43;;;3.03;;
71973;SDS011;59840;52.122;5.404;2023-12-14T12:42:53;4.43;;;2.55;;
71973;SDS011;59840;52.122;5.404;2023-12-14T12:45:19;3.80;;;2.90;;
71973;SDS011;59840;52.122;5.404;2023-12-14T12:47:49;6.93;;;3.28;;
71973;SDS011;59840;52.122;5.404;2023-12-14T12:50:16;3.83;;;2.47;;
71973;SDS011;59840;52.122;5.404;2023-12-14T12:52:43;6.20;;;2.70;;
71973;SDS011;59840;52.122;5.404;2023-12-14T12:55:12;3.20;;;2.60;;
71973;SDS011;59840;52.122;5.404;2023-12-14T12:57:38;5.55;;;3.22;;
71973;SDS011;59840;52.122;5.404;2023-12-14T13:00:06;5.85;;;3.15;;
71973;SDS011;59840;52.122;5.404;2023-12-14T13:02:37;4.97;;;3.28;;
71973;SDS011;59840;52.122;5.404;2023-12-14T13:05:06;3.27;;;2.50;;
71973;SDS011;59840;52.122;5.404;2023-12-14T13:07:34;4.57;;;2.63;;
71973;SDS011;59840;52.122;5.404;2023-12-14T13:10:02;4.57;;;2.60;;
71973;SDS011;59840;52.122;5.404;2023-12-14T13:12:50;4.47;;;2.47;;
71973;SDS011;59840;52.122;5.404;2023-12-14T13:15:17;3.55;;;2.40;;
71973;SDS011;59840;52.122;5.404;2023-12-14T13:17:45;7.07;;;2.13;;
71973;SDS011;59840;52.122;5.404;2023-12-14T13:20:11;4.43;;;2.45;;
71973;SDS011;59840;52.122;5.404;2023-12-14T13:22:38;5.53;;;1.98;;
71973;SDS011;59840;52.122;5.404;2023-12-14T13:25:06;4.32;;;2.33;;
71973;SDS011;59840;52.122;5.404;2023-12-14T13:27:32;6.85;;;2.30;;
71973;SDS011;59840;52.122;5.404;2023-12-14T13:30:03;3.67;;;2.50;;
71973;SDS011;59840;52.122;5.404;2023-12-14T13:32:30;2.60;;;1.83;;
71973;SDS011;59840;52.122;5.404;2023-12-14T13:34:57;2.50;;;1.70;;
71973;SDS011;59840;52.122;5.404;2023-12-14T13:37:24;2.83;;;1.58;;
71973;SDS011;59840;52.122;5.404;2023-12-14T13:39:50;4.50;;;2.20;;
71973;SDS011;59840;52.122;5.404;2023-12-14T13:42:19;3.87;;;1.90;;
71973;SDS011;59840;52.122;5.404;2023-12-14T13:44:45;3.85;;;1.98;;
71973;SDS011;59840;52.122;5.404;2023-12-14T13:47:12;3.75;;;2.00;;
71973;SDS011;59840;52.122;5.404;2023-12-14T13:49:39;6.22;;;2.00;;
71973;SDS011;59840;52.122;5.404;2023-12-14T13:52:05;2.28;;;1.55;;
71973;SDS011;59840;52.122;5.404;2023-12-14T13:54:32;2.33;;;1.23;;
71973;SDS011;59840;52.122;5.404;2023-12-14T13:56:58;2.63;;;1.73;;
71973;SDS011;59840;52.122;5.404;2023-12-14T13:59:25;2.60;;;1.80;;
71973;SDS011;59840;52.122;5.404;2023-12-14T14:01:52;4.43;;;1.70;;
71973;SDS011;59840;52.122;5.404;2023-12-14T14:04:18;3.38;;;1.52;;
71973;SDS011;59840;52.122;5.404;2023-12-14T14:06:45;2.70;;;1.80;;
71973;SDS011;59840;52.122;5.404;2023-12-14T14:09:12;5.70;;;2.00;;
71973;SDS011;59840;52.122;5.404;2023-12-14T14:11:39;2.53;;;1.90;;
71973;SDS011;59840;52.122;5.404;2023-12-14T14:14:11;2.65;;;1.98;;
71973;SDS011;59840;52.122;5.404;2023-12-14T14:16:38;3.83;;;2.13;;
71973;SDS011;59840;52.122;5.404;2023-12-14T14:19:05;3.97;;;2.63;;
71973;SDS011;59840;52.122;5.404;2023-12-14T14:21:31;4.50;;;2.30;;
71973;SDS011;59840;52.122;5.404;2023-12-14T14:23:58;4.47;;;2.53;;
71973;SDS011;59840;52.122;5.404;2023-12-14T14:26:25;6.97;;;2.42;;
71973;SDS011;59840;52.122;5.404;2023-12-14T14:28:52;4.15;;;2.70;;
71973;SDS011;59840;52.122;5.404;2023-12-14T14:31:20;3.30;;;2.43;;
71973;SDS011;59840;52.122;5.404;2023-12-14T14:33:47;5.88;;;2.97;;
71973;SDS011;59840;52.122;5.404;2023-12-14T14:36:14;5.32;;;3.00;;
71973;SDS011;59840;52.122;5.404;2023-12-14T14:38:41;3.58;;;2.33;;
71973;SDS011;59840;52.122;5.404;2023-12-14T14:41:08;4.97;;;2.60;;
71973;SDS011;59840;52.122;5.404;2023-12-14T14:43:34;6.23;;;2.40;;
71973;SDS011;59840;52.122;5.404;2023-12-14T14:46:01;6.30;;;2.58;;
71973;SDS011;59840;52.122;5.404;2023-12-14T14:48:28;4.03;;;2.80;;
71973;SDS011;59840;52.122;5.404;2023-12-14T14:50:55;4.25;;;2.92;;
71973;SDS011;59840;52.122;5.404;2023-12-14T14:53:22;5.07;;;3.22;;
71973;SDS011;59840;52.122;5.404;2023-12-14T14:55:48;4.97;;;2.80;;